Ruffner, Alabama
Current Conditions -  °F | °C
As of 1:53 AM on Monday 24 Nov 2014 (Local Time) from KBHM Reporting Station
Overcast Overcast  
Wind Chill: 64°   Ceiling: 2100
Heat Index: 64°   Visibility: 10mi
Dew Point: 58°   Wind: 20mph
Humidity: 80%   Direction: 220°SW
Pressure: 29.7"   Gusts: 29mph
Location:  33.5393°N, 86.6626°W
Report Text: KBHM 240753Z 22017G25KT 10SM BKN021 OVC026 18/14 A2970 RMK AO2 PK WND 21027/0707 SLP054 T01780144
Loading
Personal Weather Stations






























Interactive Weather Map New forecast layout! Learn more

10-Day Weather Forecast

Advertisements
Track Severe Weather on mobile